sensor_id;sensor_type;location;lat;lon;timestamp;temperature;humidity
8939;DHT22;4504;48.810;9.172;2022-12-05T00:00:24;4.10;99.90
8939;DHT22;4504;48.810;9.172;2022-12-05T00:02:51;4.10;99.90
8939;DHT22;4504;48.810;9.172;2022-12-05T00:05:20;4.10;99.90
8939;DHT22;4504;48.810;9.172;2022-12-05T00:07:47;4.10;99.90
8939;DHT22;4504;48.810;9.172;2022-12-05T00:10:14;4.20;99.90
8939;DHT22;4504;48.810;9.172;2022-12-05T00:12:41;4.10;99.90
8939;DHT22;4504;48.810;9.172;2022-12-05T00:15:09;4.10;99.90
8939;DHT22;4504;48.810;9.172;2022-12-05T00:17:37;4.10;99.90
8939;DHT22;4504;48.810;9.172;2022-12-05T00:20:07;4.10;99.90
8939;DHT22;4504;48.810;9.172;2022-12-05T00:22:36;4.10;99.90
8939;DHT22;4504;48.810;9.172;2022-12-05T00:25:05;4.20;99.90
8939;DHT22;4504;48.810;9.172;2022-12-05T00:27:32;4.10;99.90
8939;DHT22;4504;48.810;9.172;2022-12-05T00:30:00;4.10;99.90
8939;DHT22;4504;48.810;9.172;2022-12-05T00:32:28;4.20;99.90
8939;DHT22;4504;48.810;9.172;2022-12-05T00:34:55;4.10;99.90
8939;DHT22;4504;48.810;9.172;2022-12-05T00:37:22;4.30;99.90
8939;DHT22;4504;48.810;9.172;2022-12-05T00:39:51;4.20;99.90
8939;DHT22;4504;48.810;9.172;2022-12-05T00:42:18;4.20;99.90
8939;DHT22;4504;48.810;9.172;2022-12-05T00:44:48;4.20;99.90
8939;DHT22;4504;48.810;9.172;2022-12-05T00:47:15;4.20;99.90
8939;DHT22;4504;48.810;9.172;2022-12-05T00:49:42;4.20;99.90
8939;DHT22;4504;48.810;9.172;2022-12-05T00:52:09;4.20;99.90
8939;DHT22;4504;48.810;9.172;2022-12-05T00:54:37;4.10;99.90
8939;DHT22;4504;48.810;9.172;2022-12-05T00:57:06;4.20;99.90
8939;DHT22;4504;48.810;9.172;2022-12-05T00:59:33;4.30;99.90
8939;DHT22;4504;48.810;9.172;2022-12-05T01:02:00;4.10;99.90
8939;DHT22;4504;48.810;9.172;2022-12-05T01:04:27;4.20;99.90
8939;DHT22;4504;48.810;9.172;2022-12-05T01:06:55;4.20;99.90
8939;DHT22;4504;48.810;9.172;2022-12-05T01:09:23;4.30;99.90
8939;DHT22;4504;48.810;9.172;2022-12-05T01:11:50;4.20;99.90
8939;DHT22;4504;48.810;9.172;2022-12-05T01:14:21;4.10;99.90
8939;DHT22;4504;48.810;9.172;2022-12-05T01:16:50;4.20;99.90
8939;DHT22;4504;48.810;9.172;2022-12-05T01:19:21;4.30;99.90
8939;DHT22;4504;48.810;9.172;2022-12-05T01:21:48;4.20;99.90
8939;DHT22;4504;48.810;9.172;2022-12-05T01:24:16;4.30;99.90
8939;DHT22;4504;48.810;9.172;2022-12-05T01:26:44;4.30;99.90
8939;DHT22;4504;48.810;9.172;2022-12-05T01:29:13;4.30;99.90
8939;DHT22;4504;48.810;9.172;2022-12-05T01:31:42;4.20;99.90
8939;DHT22;4504;48.810;9.172;2022-12-05T01:34:11;4.20;99.90
8939;DHT22;4504;48.810;9.172;2022-12-05T01:36:39;4.40;99.90
8939;DHT22;4504;48.810;9.172;2022-12-05T01:39:07;4.20;99.90
8939;DHT22;4504;48.810;9.172;2022-12-05T01:41:37;4.20;99.90
8939;DHT22;4504;48.810;9.172;2022-12-05T01:44:07;4.40;99.90
8939;DHT22;4504;48.810;9.172;2022-12-05T01:46:37;4.30;99.90
8939;DHT22;4504;48.810;9.172;2022-12-05T01:49:08;4.30;99.90
8939;DHT22;4504;48.810;9.172;2022-12-05T01:51:42;4.40;99.90
8939;DHT22;4504;48.810;9.172;2022-12-05T01:54:11;4.30;99.90
8939;DHT22;4504;48.810;9.172;2022-12-05T01:56:40;4.30;99.90
8939;DHT22;4504;48.810;9.172;2022-12-05T01:59:09;4.30;99.90
8939;DHT22;4504;48.810;9.172;2022-12-05T02:01:37;4.30;99.90
8939;DHT22;4504;48.810;9.172;2022-12-05T02:04:07;4.30;99.90
8939;DHT22;4504;48.810;9.172;2022-12-05T02:06:35;4.40;99.90
8939;DHT22;4504;48.810;9.172;2022-12-05T02:09:03;4.30;99.90
8939;DHT22;4504;48.810;9.172;2022-12-05T02:11:32;4.30;99.90
8939;DHT22;4504;48.810;9.172;2022-12-05T02:14:12;4.30;99.90
8939;DHT22;4504;48.810;9.172;2022-12-05T02:16:48;4.30;99.90
8939;DHT22;4504;48.810;9.172;2022-12-05T02:19:51;4.40;99.90
8939;DHT22;4504;48.810;9.172;2022-12-05T02:22:47;4.30;99.90
8939;DHT22;4504;48.810;9.172;2022-12-05T02:25:38;4.20;99.90
8939;DHT22;4504;48.810;9.172;2022-12-05T02:31:07;4.10;99.90
8939;DHT22;4504;48.810;9.172;2022-12-05T02:33:40;4.30;99.90
8939;DHT22;4504;48.810;9.172;2022-12-05T02:36:14;4.10;99.90
8939;DHT22;4504;48.810;9.172;2022-12-05T02:38:49;4.10;99.90
8939;DHT22;4504;48.810;9.172;2022-12-05T02:41:21;4.10;99.90
8939;DHT22;4504;48.810;9.172;2022-12-05T02:43:52;4.10;99.90
8939;DHT22;4504;48.810;9.172;2022-12-05T02:46:24;4.10;99.90
8939;DHT22;4504;48.810;9.172;2022-12-05T02:48:55;4.10;99.90
8939;DHT22;4504;48.810;9.172;2022-12-05T02:51:26;4.10;99.90
8939;DHT22;4504;48.810;9.172;2022-12-05T02:53:57;4.30;99.90
8939;DHT22;4504;48.810;9.172;2022-12-05T02:56:26;4.10;99.90
8939;DHT22;4504;48.810;9.172;2022-12-05T02:58:55;4.10;99.90
8939;DHT22;4504;48.810;9.172;2022-12-05T03:01:25;4.30;99.90
8939;DHT22;4504;48.810;9.172;2022-12-05T03:03:53;4.10;99.90
8939;DHT22;4504;48.810;9.172;2022-12-05T03:06:25;4.20;99.90
8939;DHT22;4504;48.810;9.172;2022-12-05T03:08:56;4.20;99.90
8939;DHT22;4504;48.810;9.172;2022-12-05T03:11:26;4.10;99.90
8939;DHT22;4504;48.810;9.172;2022-12-05T03:13:57;4.10;99.90
8939;DHT22;4504;48.810;9.172;2022-12-05T03:16:32;4.30;99.90
8939;DHT22;4504;48.810;9.172;2022-12-05T03:19:03;4.10;99.90
8939;DHT22;4504;48.810;9.172;2022-12-05T03:21:35;4.10;99.90
8939;DHT22;4504;48.810;9.172;2022-12-05T03:24:05;4.10;99.90
8939;DHT22;4504;48.810;9.172;2022-12-05T03:26:41;4.10;99.90
8939;DHT22;4504;48.810;9.172;2022-12-05T03:29:21;4.10;99.90
8939;DHT22;4504;48.810;9.172;2022-12-05T03:32:01;4.20;99.90
8939;DHT22;4504;48.810;9.172;2022-12-05T03:34:37;4.30;99.90
8939;DHT22;4504;48.810;9.172;2022-12-05T03:37:11;4.20;99.90
8939;DHT22;4504;48.810;9.172;2022-12-05T03:39:43;4.20;99.90
8939;DHT22;4504;48.810;9.172;2022-12-05T03:42:15;4.20;99.90
8939;DHT22;4504;48.810;9.172;2022-12-05T03:44:48;4.30;99.90
8939;DHT22;4504;48.810;9.172;2022-12-05T03:47:20;4.30;99.90
8939;DHT22;4504;48.810;9.172;2022-12-05T03:49:50;4.20;99.90
8939;DHT22;4504;48.810;9.172;2022-12-05T03:52:23;4.30;99.90
8939;DHT22;4504;48.810;9.172;2022-12-05T03:54:54;4.50;99.90
8939;DHT22;4504;48.810;9.172;2022-12-05T03:57:26;4.30;99.90
8939;DHT22;4504;48.810;9.172;2022-12-05T03:59:56;4.30;99.90
8939;DHT22;4504;48.810;9.172;2022-12-05T04:02:30;4.30;99.90
8939;DHT22;4504;48.810;9.172;2022-12-05T04:05:03;4.50;99.90
8939;DHT22;4504;48.810;9.172;2022-12-05T04:07:35;4.30;99.90
8939;DHT22;4504;48.810;9.172;2022-12-05T04:10:09;4.40;99.90
8939;DHT22;4504;48.810;9.172;2022-12-05T04:12:39;4.30;99.90
8939;DHT22;4504;48.810;9.172;2022-12-05T04:15:11;4.40;99.90
8939;DHT22;4504;48.810;9.172;2022-12-05T04:17:47;4.40;99.90
8939;DHT22;4504;48.810;9.172;2022-12-05T04:20:17;4.50;99.90
8939;DHT22;4504;48.810;9.172;2022-12-05T04:23:05;4.50;99.90
8939;DHT22;4504;48.810;9.172;2022-12-05T04:25:36;4.40;99.90
8939;DHT22;4504;48.810;9.172;2022-12-05T04:28:25;4.40;99.90
8939;DHT22;4504;48.810;9.172;2022-12-05T04:30:58;4.50;99.90
8939;DHT22;4504;48.810;9.172;2022-12-05T04:33:34;4.40;99.90
8939;DHT22;4504;48.810;9.172;2022-12-05T04:36:06;4.40;99.90
8939;DHT22;4504;48.810;9.172;2022-12-05T04:38:39;4.40;99.90
8939;DHT22;4504;48.810;9.172;2022-12-05T04:41:10;4.40;99.90
8939;DHT22;4504;48.810;9.172;2022-12-05T04:43:40;4.40;99.90
8939;DHT22;4504;48.810;9.172;2022-12-05T04:46:11;4.50;99.90
8939;DHT22;4504;48.810;9.172;2022-12-05T04:48:43;4.40;99.90
8939;DHT22;4504;48.810;9.172;2022-12-05T04:51:15;4.50;99.90
8939;DHT22;4504;48.810;9.172;2022-12-05T04:53:44;4.40;99.90
8939;DHT22;4504;48.810;9.172;2022-12-05T04:56:15;4.40;99.90
8939;DHT22;4504;48.810;9.172;2022-12-05T04:58:45;4.40;99.90
8939;DHT22;4504;48.810;9.172;2022-12-05T05:01:16;4.40;99.90
8939;DHT22;4504;48.810;9.172;2022-12-05T05:03:49;4.40;99.90
8939;DHT22;4504;48.810;9.172;2022-12-05T05:06:17;4.50;99.90
8939;DHT22;4504;48.810;9.172;2022-12-05T05:08:49;4.40;99.90
8939;DHT22;4504;48.810;9.172;2022-12-05T05:11:18;4.50;99.90
8939;DHT22;4504;48.810;9.172;2022-12-05T05:13:46;4.60;99.90
8939;DHT22;4504;48.810;9.172;2022-12-05T05:16:14;4.40;99.90
8939;DHT22;4504;48.810;9.172;2022-12-05T05:18:46;4.60;99.90
8939;DHT22;4504;48.810;9.172;2022-12-05T05:21:19;4.40;99.90
8939;DHT22;4504;48.810;9.172;2022-12-05T05:23:47;4.40;99.90
8939;DHT22;4504;48.810;9.172;2022-12-05T05:26:15;4.50;99.90
8939;DHT22;4504;48.810;9.172;2022-12-05T05:28:43;4.40;99.90
8939;DHT22;4504;48.810;9.172;2022-12-05T05:31:11;4.60;99.90
8939;DHT22;4504;48.810;9.172;2022-12-05T05:33:39;4.50;99.90
8939;DHT22;4504;48.810;9.172;2022-12-05T05:36:09;4.60;99.90
8939;DHT22;4504;48.810;9.172;2022-12-05T05:38:38;4.50;99.90
8939;DHT22;4504;48.810;9.172;2022-12-05T05:41:11;4.50;99.90
8939;DHT22;4504;48.810;9.172;2022-12-05T05:43:39;4.50;99.90
8939;DHT22;4504;48.810;9.172;2022-12-05T05:46:06;4.50;99.90
8939;DHT22;4504;48.810;9.172;2022-12-05T05:48:33;4.50;99.90
8939;DHT22;4504;48.810;9.172;2022-12-05T05:51:01;4.50;99.90
8939;DHT22;4504;48.810;9.172;2022-12-05T05:53:29;4.50;99.90
8939;DHT22;4504;48.810;9.172;2022-12-05T05:55:56;4.60;99.90
8939;DHT22;4504;48.810;9.172;2022-12-05T05:58:23;4.50;99.90
8939;DHT22;4504;48.810;9.172;2022-12-05T06:00:52;4.50;99.90
8939;DHT22;4504;48.810;9.172;2022-12-05T06:03:19;4.50;99.90
8939;DHT22;4504;48.810;9.172;2022-12-05T06:05:55;4.70;99.90
8939;DHT22;4504;48.810;9.172;2022-12-05T06:08:22;4.70;99.90
8939;DHT22;4504;48.810;9.172;2022-12-05T06:10:52;4.50;99.90
8939;DHT22;4504;48.810;9.172;2022-12-05T06:13:19;4.60;99.90
8939;DHT22;4504;48.810;9.172;2022-12-05T06:15:46;4.60;99.90
8939;DHT22;4504;48.810;9.172;2022-12-05T06:18:13;4.60;99.90
8939;DHT22;4504;48.810;9.172;2022-12-05T06:20:40;4.60;99.90
8939;DHT22;4504;48.810;9.172;2022-12-05T06:23:07;4.60;99.90
8939;DHT22;4504;48.810;9.172;2022-12-05T06:25:34;4.60;99.90
8939;DHT22;4504;48.810;9.172;2022-12-05T06:28:03;4.70;99.90
8939;DHT22;4504;48.810;9.172;2022-12-05T06:30:30;4.60;99.90
8939;DHT22;4504;48.810;9.172;2022-12-05T06:32:57;4.70;99.90
8939;DHT22;4504;48.810;9.172;2022-12-05T06:35:24;4.60;99.90
8939;DHT22;4504;48.810;9.172;2022-12-05T06:37:51;4.70;99.90
8939;DHT22;4504;48.810;9.172;2022-12-05T06:40:18;4.60;99.90
8939;DHT22;4504;48.810;9.172;2022-12-05T06:42:45;4.60;99.90
8939;DHT22;4504;48.810;9.172;2022-12-05T06:45:14;4.60;99.90
8939;DHT22;4504;48.810;9.172;2022-12-05T06:47:41;4.60;99.90
8939;DHT22;4504;48.810;9.172;2022-12-05T06:50:09;4.70;99.90
8939;DHT22;4504;48.810;9.172;2022-12-05T06:52:36;4.60;99.90
8939;DHT22;4504;48.810;9.172;2022-12-05T06:55:03;4.70;99.90
8939;DHT22;4504;48.810;9.172;2022-12-05T06:57:30;4.70;99.90
8939;DHT22;4504;48.810;9.172;2022-12-05T06:59:57;4.60;99.90
8939;DHT22;4504;48.810;9.172;2022-12-05T07:02:50;4.70;99.90
8939;DHT22;4504;48.810;9.172;2022-12-05T07:05:17;4.70;99.90
8939;DHT22;4504;48.810;9.172;2022-12-05T07:07:44;4.70;99.90
8939;DHT22;4504;48.810;9.172;2022-12-05T07:10:11;4.70;99.90
8939;DHT22;4504;48.810;9.172;2022-12-05T07:12:38;4.90;99.90
8939;DHT22;4504;48.810;9.172;2022-12-05T07:15:06;4.70;99.90
8939;DHT22;4504;48.810;9.172;2022-12-05T07:17:36;4.70;99.90
8939;DHT22;4504;48.810;9.172;2022-12-05T07:20:06;4.70;99.90
8939;DHT22;4504;48.810;9.172;2022-12-05T07:22:35;4.70;99.90
8939;DHT22;4504;48.810;9.172;2022-12-05T07:25:03;4.80;99.90
8939;DHT22;4504;48.810;9.172;2022-12-05T07:27:30;4.70;99.90
8939;DHT22;4504;48.810;9.172;2022-12-05T07:29:58;4.70;99.90
8939;DHT22;4504;48.810;9.172;2022-12-05T07:32:25;4.70;99.90
8939;DHT22;4504;48.810;9.172;2022-12-05T07:34:53;4.90;99.90
8939;DHT22;4504;48.810;9.172;2022-12-05T07:37:21;4.90;99.90
8939;DHT22;4504;48.810;9.172;2022-12-05T07:39:48;4.80;99.90
8939;DHT22;4504;48.810;9.172;2022-12-05T07:42:15;4.80;99.90
8939;DHT22;4504;48.810;9.172;2022-12-05T07:44:42;4.90;99.90
8939;DHT22;4504;48.810;9.172;2022-12-05T07:47:09;4.80;99.90
8939;DHT22;4504;48.810;9.172;2022-12-05T07:49:36;4.80;99.90
8939;DHT22;4504;48.810;9.172;2022-12-05T07:52:03;5.00;99.90
8939;DHT22;4504;48.810;9.172;2022-12-05T07:54:32;5.00;99.90
8939;DHT22;4504;48.810;9.172;2022-12-05T07:56:59;4.90;99.90
8939;DHT22;4504;48.810;9.172;2022-12-05T07:59:26;4.90;99.90
8939;DHT22;4504;48.810;9.172;2022-12-05T08:01:53;5.00;99.90
8939;DHT22;4504;48.810;9.172;2022-12-05T08:04:20;5.00;99.90
8939;DHT22;4504;48.810;9.172;2022-12-05T08:06:48;4.90;99.90
8939;DHT22;4504;48.810;9.172;2022-12-05T08:09:15;5.10;99.90
8939;DHT22;4504;48.810;9.172;2022-12-05T08:11:43;5.00;99.90
8939;DHT22;4504;48.810;9.172;2022-12-05T08:14:10;5.00;99.90
8939;DHT22;4504;48.810;9.172;2022-12-05T08:16:37;5.00;99.90
8939;DHT22;4504;48.810;9.172;2022-12-05T08:19:06;5.00;99.90
8939;DHT22;4504;48.810;9.172;2022-12-05T08:21:34;5.00;99.90
8939;DHT22;4504;48.810;9.172;2022-12-05T08:24:04;5.00;99.90
8939;DHT22;4504;48.810;9.172;2022-12-05T08:26:32;5.00;99.90
8939;DHT22;4504;48.810;9.172;2022-12-05T08:29:03;5.10;99.90
8939;DHT22;4504;48.810;9.172;2022-12-05T08:31:32;5.20;99.90
8939;DHT22;4504;48.810;9.172;2022-12-05T08:34:00;5.10;99.90
8939;DHT22;4504;48.810;9.172;2022-12-05T08:36:28;5.10;99.90
8939;DHT22;4504;48.810;9.172;2022-12-05T08:38:56;5.20;99.90
8939;DHT22;4504;48.810;9.172;2022-12-05T08:41:24;5.10;99.90
8939;DHT22;4504;48.810;9.172;2022-12-05T08:43:54;5.10;99.90
8939;DHT22;4504;48.810;9.172;2022-12-05T08:46:22;5.10;99.90
8939;DHT22;4504;48.810;9.172;2022-12-05T08:48:50;5.10;99.90
8939;DHT22;4504;48.810;9.172;2022-12-05T08:51:17;5.10;99.90
8939;DHT22;4504;48.810;9.172;2022-12-05T08:53:44;5.10;99.90
8939;DHT22;4504;48.810;9.172;2022-12-05T08:56:12;5.10;99.90
8939;DHT22;4504;48.810;9.172;2022-12-05T08:58:39;5.20;99.90
8939;DHT22;4504;48.810;9.172;2022-12-05T09:01:07;5.20;99.90
8939;DHT22;4504;48.810;9.172;2022-12-05T09:03:37;5.30;99.90
8939;DHT22;4504;48.810;9.172;2022-12-05T09:06:09;5.20;99.90
8939;DHT22;4504;48.810;9.172;2022-12-05T09:08:36;5.20;99.90
8939;DHT22;4504;48.810;9.172;2022-12-05T09:11:04;5.20;99.90
8939;DHT22;4504;48.810;9.172;2022-12-05T09:13:32;5.30;99.90
8939;DHT22;4504;48.810;9.172;2022-12-05T09:16:04;5.30;99.90
8939;DHT22;4504;48.810;9.172;2022-12-05T09:18:31;5.40;99.90
8939;DHT22;4504;48.810;9.172;2022-12-05T09:21:04;5.30;99.90
8939;DHT22;4504;48.810;9.172;2022-12-05T09:23:31;5.50;99.90
8939;DHT22;4504;48.810;9.172;2022-12-05T09:25:58;5.40;99.90
8939;DHT22;4504;48.810;9.172;2022-12-05T09:28:27;5.40;99.90
8939;DHT22;4504;48.810;9.172;2022-12-05T09:30:55;5.40;99.90
8939;DHT22;4504;48.810;9.172;2022-12-05T09:33:23;5.50;99.90
8939;DHT22;4504;48.810;9.172;2022-12-05T09:35:50;5.50;99.90
8939;DHT22;4504;48.810;9.172;2022-12-05T09:38:19;5.50;99.90
8939;DHT22;4504;48.810;9.172;2022-12-05T09:40:50;5.60;99.90
8939;DHT22;4504;48.810;9.172;2022-12-05T09:43:26;5.50;99.90
8939;DHT22;4504;48.810;9.172;2022-12-05T09:46:00;5.60;99.90
8939;DHT22;4504;48.810;9.172;2022-12-05T09:48:28;5.50;99.90
8939;DHT22;4504;48.810;9.172;2022-12-05T09:51:01;5.50;99.90
8939;DHT22;4504;48.810;9.172;2022-12-05T09:53:32;5.70;99.90
8939;DHT22;4504;48.810;9.172;2022-12-05T09:56:03;5.60;99.90
8939;DHT22;4504;48.810;9.172;2022-12-05T09:58:42;5.70;99.90
8939;DHT22;4504;48.810;9.172;2022-12-05T10:01:30;5.60;99.90
8939;DHT22;4504;48.810;9.172;2022-12-05T10:04:23;5.60;99.90
8939;DHT22;4504;48.810;9.172;2022-12-05T10:06:59;5.70;99.90
8939;DHT22;4504;48.810;9.172;2022-12-05T10:09:52;5.70;99.90
8939;DHT22;4504;48.810;9.172;2022-12-05T10:12:40;5.70;99.90
8939;DHT22;4504;48.810;9.172;2022-12-05T10:15:12;5.70;99.90
8939;DHT22;4504;48.810;9.172;2022-12-05T10:17:43;5.80;99.90
8939;DHT22;4504;48.810;9.172;2022-12-05T10:20:15;5.80;99.90
8939;DHT22;4504;48.810;9.172;2022-12-05T10:22:45;5.70;99.90
8939;DHT22;4504;48.810;9.172;2022-12-05T10:25:18;5.70;99.90
8939;DHT22;4504;48.810;9.172;2022-12-05T10:27:49;5.70;99.90
8939;DHT22;4504;48.810;9.172;2022-12-05T10:30:19;5.90;99.90
8939;DHT22;4504;48.810;9.172;2022-12-05T10:32:51;5.70;99.90
8939;DHT22;4504;48.810;9.172;2022-12-05T10:35:21;5.70;99.90
8939;DHT22;4504;48.810;9.172;2022-12-05T10:37:50;5.80;99.90
8939;DHT22;4504;48.810;9.172;2022-12-05T10:40:19;5.80;99.90
8939;DHT22;4504;48.810;9.172;2022-12-05T10:42:47;5.80;99.90
8939;DHT22;4504;48.810;9.172;2022-12-05T10:45:18;5.80;99.90
8939;DHT22;4504;48.810;9.172;2022-12-05T10:47:46;6.00;99.90
8939;DHT22;4504;48.810;9.172;2022-12-05T10:50:27;6.00;99.90
8939;DHT22;4504;48.810;9.172;2022-12-05T10:52:58;5.90;99.90
8939;DHT22;4504;48.810;9.172;2022-12-05T10:55:29;6.00;99.90
8939;DHT22;4504;48.810;9.172;2022-12-05T10:58:12;6.00;99.90
8939;DHT22;4504;48.810;9.172;2022-12-05T11:00:40;6.00;99.90
8939;DHT22;4504;48.810;9.172;2022-12-05T11:03:24;6.10;99.90
8939;DHT22;4504;48.810;9.172;2022-12-05T11:05:53;6.10;99.90
8939;DHT22;4504;48.810;9.172;2022-12-05T11:08:22;6.10;99.90
8939;DHT22;4504;48.810;9.172;2022-12-05T11:11:00;6.20;99.90
8939;DHT22;4504;48.810;9.172;2022-12-05T11:13:29;6.20;99.90
8939;DHT22;4504;48.810;9.172;2022-12-05T11:15:56;6.20;99.90
8939;DHT22;4504;48.810;9.172;2022-12-05T11:18:28;6.30;99.90
8939;DHT22;4504;48.810;9.172;2022-12-05T11:20:55;6.30;99.90
8939;DHT22;4504;48.810;9.172;2022-12-05T11:23:28;6.30;99.90
8939;DHT22;4504;48.810;9.172;2022-12-05T11:25:57;6.40;99.90
8939;DHT22;4504;48.810;9.172;2022-12-05T11:28:31;6.40;99.90
8939;DHT22;4504;48.810;9.172;2022-12-05T11:31:00;6.40;99.90
8939;DHT22;4504;48.810;9.172;2022-12-05T11:33:30;6.50;99.90
8939;DHT22;4504;48.810;9.172;2022-12-05T11:36:03;6.50;99.90
8939;DHT22;4504;48.810;9.172;2022-12-05T11:38:31;6.50;99.90
8939;DHT22;4504;48.810;9.172;2022-12-05T11:41:20;6.40;99.90
8939;DHT22;4504;48.810;9.172;2022-12-05T11:44:08;6.50;99.90
8939;DHT22;4504;48.810;9.172;2022-12-05T11:46:55;6.50;99.90
8939;DHT22;4504;48.810;9.172;2022-12-05T11:49:39;6.50;99.90
8939;DHT22;4504;48.810;9.172;2022-12-05T11:52:16;6.50;99.90
8939;DHT22;4504;48.810;9.172;2022-12-05T11:54:58;6.50;99.90
8939;DHT22;4504;48.810;9.172;2022-12-05T12:00:31;6.70;99.90
8939;DHT22;4504;48.810;9.172;2022-12-05T12:03:26;6.80;99.90
8939;DHT22;4504;48.810;9.172;2022-12-05T12:06:02;6.70;99.90
8939;DHT22;4504;48.810;9.172;2022-12-05T12:08:41;6.90;99.90
8939;DHT22;4504;48.810;9.172;2022-12-05T12:11:17;6.80;99.90
8939;DHT22;4504;48.810;9.172;2022-12-05T12:13:58;6.80;99.90
8939;DHT22;4504;48.810;9.172;2022-12-05T12:16:34;6.80;99.90
8939;DHT22;4504;48.810;9.172;2022-12-05T12:19:33;6.90;99.90
8939;DHT22;4504;48.810;9.172;2022-12-05T12:22:16;6.90;99.90
8939;DHT22;4504;48.810;9.172;2022-12-05T12:24:57;6.90;99.90
8939;DHT22;4504;48.810;9.172;2022-12-05T12:27:41;6.90;99.90
8939;DHT22;4504;48.810;9.172;2022-12-05T12:30:15;7.00;99.90
8939;DHT22;4504;48.810;9.172;2022-12-05T12:32:53;6.90;99.90
8939;DHT22;4504;48.810;9.172;2022-12-05T12:35:27;6.90;99.90
8939;DHT22;4504;48.810;9.172;2022-12-05T12:38:16;6.90;99.90
8939;DHT22;4504;48.810;9.172;2022-12-05T12:40:48;7.00;99.90
8939;DHT22;4504;48.810;9.172;2022-12-05T12:43:34;7.00;99.90
8939;DHT22;4504;48.810;9.172;2022-12-05T12:46:15;7.00;99.90
8939;DHT22;4504;48.810;9.172;2022-12-05T12:49:03;7.00;99.90
8939;DHT22;4504;48.810;9.172;2022-12-05T12:51:32;7.00;99.90
8939;DHT22;4504;48.810;9.172;2022-12-05T12:54:15;7.00;99.90
8939;DHT22;4504;48.810;9.172;2022-12-05T12:56:53;7.00;99.90
8939;DHT22;4504;48.810;9.172;2022-12-05T12:59:39;7.00;99.90
8939;DHT22;4504;48.810;9.172;2022-12-05T13:02:15;7.10;99.90
8939;DHT22;4504;48.810;9.172;2022-12-05T13:04:48;7.20;99.90
8939;DHT22;4504;48.810;9.172;2022-12-05T13:07:20;7.10;99.90
8939;DHT22;4504;48.810;9.172;2022-12-05T13:09:54;7.10;99.90
8939;DHT22;4504;48.810;9.172;2022-12-05T13:12:25;7.20;99.90
8939;DHT22;4504;48.810;9.172;2022-12-05T13:14:58;7.20;99.90
8939;DHT22;4504;48.810;9.172;2022-12-05T13:17:29;7.20;99.90
8939;DHT22;4504;48.810;9.172;2022-12-05T13:19:57;7.20;99.90
8939;DHT22;4504;48.810;9.172;2022-12-05T13:22:26;7.20;99.90
8939;DHT22;4504;48.810;9.172;2022-12-05T13:24:54;7.20;99.90
8939;DHT22;4504;48.810;9.172;2022-12-05T13:27:24;7.20;99.90
8939;DHT22;4504;48.810;9.172;2022-12-05T13:29:54;7.20;99.90
8939;DHT22;4504;48.810;9.172;2022-12-05T13:32:30;7.30;99.90
8939;DHT22;4504;48.810;9.172;2022-12-05T13:34:59;7.20;99.90
8939;DHT22;4504;48.810;9.172;2022-12-05T13:37:28;7.20;99.90
8939;DHT22;4504;48.810;9.172;2022-12-05T13:40:28;7.20;99.90
8939;DHT22;4504;48.810;9.172;2022-12-05T13:43:15;7.20;99.90
8939;DHT22;4504;48.810;9.172;2022-12-05T13:45:59;7.20;99.90
8939;DHT22;4504;48.810;9.172;2022-12-05T13:48:30;7.30;99.90
8939;DHT22;4504;48.810;9.172;2022-12-05T13:51:02;7.10;99.90
8939;DHT22;4504;48.810;9.172;2022-12-05T13:53:35;7.10;99.90
8939;DHT22;4504;48.810;9.172;2022-12-05T13:56:05;7.10;99.90
8939;DHT22;4504;48.810;9.172;2022-12-05T13:58:45;7.10;99.90
8939;DHT22;4504;48.810;9.172;2022-12-05T14:01:40;7.10;99.90
8939;DHT22;4504;48.810;9.172;2022-12-05T14:07:05;7.00;99.90
8939;DHT22;4504;48.810;9.172;2022-12-05T14:09:48;7.00;99.90
8939;DHT22;4504;48.810;9.172;2022-12-05T14:12:29;7.00;99.90
8939;DHT22;4504;48.810;9.172;2022-12-05T14:15:00;7.00;99.90
8939;DHT22;4504;48.810;9.172;2022-12-05T14:17:31;7.10;99.90
8939;DHT22;4504;48.810;9.172;2022-12-05T14:20:18;7.00;99.90
8939;DHT22;4504;48.810;9.172;2022-12-05T14:23:05;7.00;99.90
8939;DHT22;4504;48.810;9.172;2022-12-05T14:25:41;7.00;99.90
8939;DHT22;4504;48.810;9.172;2022-12-05T14:28:17;7.00;99.90
8939;DHT22;4504;48.810;9.172;2022-12-05T14:30:56;6.90;99.90
8939;DHT22;4504;48.810;9.172;2022-12-05T14:33:28;7.00;99.90
8939;DHT22;4504;48.810;9.172;2022-12-05T14:36:04;7.00;99.90
8939;DHT22;4504;48.810;9.172;2022-12-05T14:38:33;6.90;99.90
8939;DHT22;4504;48.810;9.172;2022-12-05T14:41:11;6.90;99.90
8939;DHT22;4504;48.810;9.172;2022-12-05T14:43:40;6.90;99.90
8939;DHT22;4504;48.810;9.172;2022-12-05T14:46:17;6.80;99.90
8939;DHT22;4504;48.810;9.172;2022-12-05T14:48:47;6.70;99.90
8939;DHT22;4504;48.810;9.172;2022-12-05T14:51:53;6.70;99.90
8939;DHT22;4504;48.810;9.172;2022-12-05T14:54:22;6.70;99.90
8939;DHT22;4504;48.810;9.172;2022-12-05T14:56:52;6.70;99.90
8939;DHT22;4504;48.810;9.172;2022-12-05T14:59:25;6.60;99.90
8939;DHT22;4504;48.810;9.172;2022-12-05T15:01:55;6.60;99.90
8939;DHT22;4504;48.810;9.172;2022-12-05T15:04:29;6.60;99.90
8939;DHT22;4504;48.810;9.172;2022-12-05T15:07:02;6.70;99.90
8939;DHT22;4504;48.810;9.172;2022-12-05T15:09:38;6.60;99.90
8939;DHT22;4504;48.810;9.172;2022-12-05T15:12:12;6.60;99.90
8939;DHT22;4504;48.810;9.172;2022-12-05T15:14:46;6.70;99.90
8939;DHT22;4504;48.810;9.172;2022-12-05T15:17:16;6.60;99.90
8939;DHT22;4504;48.810;9.172;2022-12-05T15:19:50;6.70;99.90
8939;DHT22;4504;48.810;9.172;2022-12-05T15:22:21;6.80;99.90
8939;DHT22;4504;48.810;9.172;2022-12-05T15:24:50;6.60;99.90
8939;DHT22;4504;48.810;9.172;2022-12-05T15:27:17;6.60;99.90
8939;DHT22;4504;48.810;9.172;2022-12-05T15:29:44;6.50;99.90
8939;DHT22;4504;48.810;9.172;2022-12-05T15:32:24;6.50;99.90
8939;DHT22;4504;48.810;9.172;2022-12-05T15:34:56;6.70;99.90
8939;DHT22;4504;48.810;9.172;2022-12-05T15:37:30;6.50;99.90
8939;DHT22;4504;48.810;9.172;2022-12-05T15:39:59;6.40;99.90
8939;DHT22;4504;48.810;9.172;2022-12-05T15:42:29;6.40;99.90
8939;DHT22;4504;48.810;9.172;2022-12-05T15:45:14;6.30;99.90
8939;DHT22;4504;48.810;9.172;2022-12-05T15:47:44;6.30;99.90
8939;DHT22;4504;48.810;9.172;2022-12-05T15:50:12;6.50;99.90
8939;DHT22;4504;48.810;9.172;2022-12-05T15:52:43;6.30;99.90
8939;DHT22;4504;48.810;9.172;2022-12-05T15:55:15;6.30;99.90
8939;DHT22;4504;48.810;9.172;2022-12-05T15:57:51;6.30;99.90
8939;DHT22;4504;48.810;9.172;2022-12-05T16:00:19;6.30;99.90
8939;DHT22;4504;48.810;9.172;2022-12-05T16:02:50;6.20;99.90
8939;DHT22;4504;48.810;9.172;2022-12-05T16:05:22;6.30;99.90
8939;DHT22;4504;48.810;9.172;2022-12-05T16:07:52;6.30;99.90
8939;DHT22;4504;48.810;9.172;2022-12-05T16:10:20;6.30;99.90
8939;DHT22;4504;48.810;9.172;2022-12-05T16:12:48;6.40;99.90
8939;DHT22;4504;48.810;9.172;2022-12-05T16:15:20;6.30;99.90
8939;DHT22;4504;48.810;9.172;2022-12-05T16:17:52;6.30;99.90
8939;DHT22;4504;48.810;9.172;2022-12-05T16:20:23;6.40;99.90
8939;DHT22;4504;48.810;9.172;2022-12-05T16:22:54;6.30;99.90
8939;DHT22;4504;48.810;9.172;2022-12-05T16:25:23;6.30;99.90
8939;DHT22;4504;48.810;9.172;2022-12-05T16:27:59;6.30;99.90
8939;DHT22;4504;48.810;9.172;2022-12-05T16:30:28;6.20;99.90
8939;DHT22;4504;48.810;9.172;2022-12-05T16:33:03;6.30;99.90
8939;DHT22;4504;48.810;9.172;2022-12-05T16:35:37;6.40;99.90
8939;DHT22;4504;48.810;9.172;2022-12-05T16:38:10;6.30;99.90
8939;DHT22;4504;48.810;9.172;2022-12-05T16:40:39;6.40;99.90
8939;DHT22;4504;48.810;9.172;2022-12-05T16:43:17;6.30;99.90
8939;DHT22;4504;48.810;9.172;2022-12-05T16:45:46;6.30;99.90
8939;DHT22;4504;48.810;9.172;2022-12-05T16:48:17;6.40;99.90
8939;DHT22;4504;48.810;9.172;2022-12-05T16:50:45;6.30;99.90
8939;DHT22;4504;48.810;9.172;2022-12-05T16:53:18;6.30;99.90
8939;DHT22;4504;48.810;9.172;2022-12-05T16:55:55;6.30;99.90